Time;durP1;ratioP1;P1;durP2;ratioP2;P2;SDS_P1;SDS_P2;PMS_P1;PMS_P2;Temp;Humidity;BMP_temperature;BMP_pressure;BME280_temperature;BME280_humidity;BME280_pressure;Samples;Min_cycle;Max_cycle;Signal;HPM_P1;HPM_P2
2021/03/11 00:01:14;;;;;;;21.83;18.15;;;8.20;99.90;;;;;;4941294;28;20031;-76
2021/03/11 00:03:40;;;;;;;21.90;17.60;;;8.20;99.90;;;;;;4942689;28;20027;-76
2021/03/11 00:06:06;;;;;;;28.90;18.70;;;8.20;99.90;;;;;;4944094;28;20026;-76
2021/03/11 00:08:31;;;;;;;24.50;19.55;;;8.20;99.90;;;;;;4937978;28;20376;-76
2021/03/11 00:10:57;;;;;;;26.10;18.42;;;8.20;99.90;;;;;;4934820;28;20249;-76
2021/03/11 00:13:23;;;;;;;22.55;17.73;;;8.10;99.90;;;;;;4941432;28;20490;-76
2021/03/11 00:15:49;;;;;;;23.95;18.13;;;8.10;99.90;;;;;;4939473;28;20027;-76
2021/03/11 00:18:15;;;;;;;21.23;18.55;;;8.10;99.90;;;;;;4937776;28;20027;-76
2021/03/11 00:20:41;;;;;;;30.88;21.02;;;8.10;99.90;;;;;;4940098;28;20041;-76
2021/03/11 00:23:08;;;;;;;25.63;18.42;;;8.00;99.90;;;;;;4950248;28;20050;-76
2021/03/11 00:25:35;;;;;;;23.00;18.85;;;8.00;99.90;;;;;;4952080;28;20074;-76
2021/03/11 00:28:02;;;;;;;23.77;18.50;;;8.00;99.90;;;;;;4955961;28;20030;-76
2021/03/11 00:30:28;;;;;;;25.08;19.30;;;8.00;99.90;;;;;;4959861;28;20027;-75
2021/03/11 00:32:54;;;;;;;24.10;18.48;;;8.00;99.90;;;;;;4959387;28;20359;-76
2021/03/11 00:35:20;;;;;;;22.17;17.95;;;7.90;99.90;;;;;;4958790;28;20035;-76
2021/03/11 00:37:47;;;;;;;29.42;20.85;;;7.90;99.90;;;;;;4939527;28;20036;-75
2021/03/11 00:40:16;;;;;;;27.25;19.35;;;7.80;99.90;;;;;;4960458;28;20050;-76
2021/03/11 00:42:42;;;;;;;27.90;18.38;;;7.80;99.90;;;;;;4949606;28;20067;-76
2021/03/11 00:45:10;;;;;;;27.90;19.33;;;7.70;99.90;;;;;;4960380;28;20061;-76
2021/03/11 00:47:37;;;;;;;29.85;20.67;;;7.70;99.90;;;;;;4959582;28;20057;-75
2021/03/11 00:50:09;;;;;;;25.38;19.63;;;7.70;99.90;;;;;;4972470;28;20393;-75
2021/03/11 00:52:35;;;;;;;27.23;19.85;;;7.70;99.90;;;;;;4959406;28;20061;-76
2021/03/11 00:55:01;;;;;;;26.00;19.02;;;7.70;99.90;;;;;;4958142;28;20035;-76
2021/03/11 00:57:27;;;;;;;22.77;17.40;;;7.70;99.90;;;;;;4959564;28;20027;-76
2021/03/11 00:59:53;;;;;;;28.95;18.80;;;7.70;99.90;;;;;;4947724;28;20038;-76
2021/03/11 01:02:19;;;;;;;24.15;18.55;;;7.70;99.90;;;;;;4946579;28;20095;-76
2021/03/11 01:04:45;;;;;;;25.05;19.67;;;7.70;99.90;;;;;;4958963;28;20552;-76
2021/03/11 01:07:12;;;;;;;25.55;18.80;;;7.70;99.90;;;;;;4960874;28;20049;-76
2021/03/11 01:09:38;;;;;;;28.48;20.25;;;7.60;99.90;;;;;;4957083;28;20024;-76
2021/03/11 01:12:05;;;;;;;28.80;19.15;;;7.50;99.90;;;;;;4949121;28;20505;-76
2021/03/11 01:14:31;;;;;;;23.27;19.25;;;7.50;99.90;;;;;;4951437;28;20027;-76
2021/03/11 01:16:57;;;;;;;23.13;18.02;;;7.50;99.90;;;;;;4961585;28;20091;-76
2021/03/11 01:19:23;;;;;;;25.75;18.55;;;7.40;99.90;;;;;;4964963;28;20389;-76
2021/03/11 01:21:49;;;;;;;23.30;19.17;;;7.40;99.90;;;;;;4954966;28;20483;-76
2021/03/11 01:24:14;;;;;;;24.65;18.80;;;7.40;99.90;;;;;;4963193;28;20556;-76
2021/03/11 01:26:40;;;;;;;25.65;19.40;;;7.30;99.90;;;;;;4947728;28;20028;-76
2021/03/11 01:29:06;;;;;;;24.85;18.77;;;7.50;99.90;;;;;;4951847;28;20510;-76
2021/03/11 01:31:32;;;;;;;27.80;18.73;;;7.70;99.90;;;;;;4964213;28;20022;-76
2021/03/11 01:33:58;;;;;;;24.77;19.50;;;7.80;99.90;;;;;;4963919;28;20424;-76
2021/03/11 01:36:24;;;;;;;24.08;18.77;;;7.80;99.90;;;;;;4961337;28;20030;-76
2021/03/11 01:38:50;;;;;;;21.25;17.40;;;7.80;99.90;;;;;;4957683;28;20030;-76
2021/03/11 01:41:16;;;;;;;26.27;19.17;;;7.70;99.90;;;;;;4964301;28;20874;-76
2021/03/11 01:43:42;;;;;;;24.63;18.13;;;7.70;99.90;;;;;;4950386;28;20035;-76
2021/03/11 01:46:08;;;;;;;23.65;17.73;;;7.60;99.90;;;;;;4958143;28;20023;-76
2021/03/11 01:48:34;;;;;;;29.17;19.80;;;7.50;99.90;;;;;;4964648;28;20064;-76
2021/03/11 01:51:01;;;;;;;25.60;18.92;;;7.40;99.90;;;;;;4965024;28;20103;-76
2021/03/11 01:53:27;;;;;;;29.65;19.63;;;7.20;99.90;;;;;;4961988;28;20023;-76
2021/03/11 01:55:53;;;;;;;21.67;16.80;;;7.20;99.90;;;;;;4941374;28;20047;-76
2021/03/11 01:58:19;;;;;;;24.02;18.85;;;7.20;99.90;;;;;;4942859;28;20483;-76
2021/03/11 02:00:45;;;;;;;20.65;17.45;;;7.30;99.90;;;;;;4941982;28;20036;-76
2021/03/11 02:03:11;;;;;;;27.45;18.38;;;7.20;99.90;;;;;;4947949;28;20036;-75
2021/03/11 02:05:37;;;;;;;24.05;18.70;;;7.10;99.90;;;;;;4943654;28;20099;-76
2021/03/11 02:08:03;;;;;;;22.42;18.13;;;7.10;99.90;;;;;;4939492;28;20034;-76
2021/03/11 02:10:30;;;;;;;25.33;17.08;;;7.10;99.90;;;;;;4946991;28;20127;-78
2021/03/11 02:13:14;;;;;;;31.02;18.70;;;7.00;99.90;;;;;;4960196;28;20290;-76
2021/03/11 02:15:58;;;;;;;26.63;18.88;;;7.00;99.90;;;;;;4960993;28;20026;-76
2021/03/11 02:18:24;;;;;;;26.17;18.23;;;7.00;99.90;;;;;;4950923;28;20060;-75
2021/03/11 02:21:00;;;;;;;21.58;17.75;;;6.90;99.90;;;;;;4960893;28;20027;-76
2021/03/11 02:23:54;;;;;;;25.55;18.50;;;6.90;99.90;;;;;;4962360;28;20027;-76
2021/03/11 02:26:32;;;;;;;26.42;17.92;;;6.90;99.90;;;;;;4954935;28;20460;-75
2021/03/11 02:29:11;;;;;;;24.75;17.85;;;6.80;99.90;;;;;;4952433;28;20059;-76
2021/03/11 02:31:39;;;;;;;26.77;17.10;;;6.80;99.90;;;;;;4963397;28;20081;-76
2021/03/11 02:34:20;;;;;;;24.75;18.58;;;6.80;99.90;;;;;;4957405;28;20035;-76
2021/03/11 02:36:49;;;;;;;24.83;18.58;;;6.80;99.90;;;;;;4956947;28;20035;-75
2021/03/11 02:39:16;;;;;;;24.48;18.38;;;6.80;99.90;;;;;;4968930;28;20038;-76
2021/03/11 02:41:44;;;;;;;22.13;19.35;;;6.70;99.90;;;;;;4957698;28;20382;-76
2021/03/11 02:44:11;;;;;;;28.65;19.02;;;6.70;99.90;;;;;;4961477;28;20454;-76
2021/03/11 02:46:39;;;;;;;22.75;19.10;;;6.70;99.90;;;;;;4953463;28;20027;-76
2021/03/11 02:49:06;;;;;;;26.48;21.48;;;6.70;99.90;;;;;;4951035;28;20574;-76
2021/03/11 02:51:33;;;;;;;29.55;20.33;;;6.60;99.90;;;;;;4960924;28;20038;-76
2021/03/11 02:53:59;;;;;;;26.05;20.27;;;6.60;99.90;;;;;;4963234;28;20037;-76
2021/03/11 02:56:25;;;;;;;25.60;18.88;;;6.50;99.90;;;;;;4954014;28;20019;-76
2021/03/11 02:58:53;;;;;;;31.70;18.15;;;6.50;99.90;;;;;;4962855;28;20102;-76
2021/03/11 03:01:21;;;;;;;25.95;19.77;;;6.50;99.90;;;;;;4959480;28;20049;-76
2021/03/11 03:03:50;;;;;;;21.17;17.35;;;6.60;99.90;;;;;;4954942;28;20038;-76
2021/03/11 03:06:18;;;;;;;25.98;18.17;;;6.50;99.90;;;;;;4947931;28;20050;-76
2021/03/11 03:08:45;;;;;;;28.25;21.33;;;6.50;99.90;;;;;;4962879;28;20042;-76
2021/03/11 03:11:15;;;;;;;29.42;20.77;;;6.50;99.90;;;;;;4950420;28;20032;-76
2021/03/11 03:13:42;;;;;;;32.38;20.58;;;6.40;99.90;;;;;;4945832;28;20043;-76
2021/03/11 03:16:09;;;;;;;25.15;20.25;;;6.30;99.90;;;;;;4943406;28;20034;-76
2021/03/11 03:18:35;;;;;;;22.23;18.48;;;6.30;99.90;;;;;;4938125;28;20057;-74
2021/03/11 03:21:06;;;;;;;29.85;19.73;;;6.30;99.90;;;;;;4944812;28;20031;-76
2021/03/11 03:23:32;;;;;;;26.67;19.65;;;6.20;99.90;;;;;;4941422;28;20035;-75
2021/03/11 03:25:58;;;;;;;25.30;19.85;;;6.20;99.90;;;;;;4940115;28;20030;-76
2021/03/11 03:28:24;;;;;;;25.05;18.58;;;6.20;99.90;;;;;;4938596;28;20112;-76
2021/03/11 03:30:50;;;;;;;27.65;19.85;;;6.20;99.90;;;;;;4940939;28;20035;-76
2021/03/11 03:33:16;;;;;;;25.25;18.58;;;6.20;99.90;;;;;;4937437;28;20024;-76
2021/03/11 03:35:42;;;;;;;21.20;18.48;;;6.20;99.90;;;;;;4938210;28;20016;-76
2021/03/11 03:38:09;;;;;;;27.02;20.45;;;6.20;99.90;;;;;;4942905;28;20042;-75
2021/03/11 03:40:35;;;;;;;26.30;19.00;;;6.20;99.90;;;;;;4943218;28;20180;-77
2021/03/11 03:43:23;;;;;;;23.13;17.33;;;6.10;99.90;;;;;;4940277;28;20035;-76
2021/03/11 03:45:54;;;;;;;27.38;19.17;;;6.00;99.90;;;;;;4943340;28;20126;-75
2021/03/11 03:48:39;;;;;;;24.20;18.65;;;6.00;99.90;;;;;;4937911;28;20462;-75
2021/03/11 03:51:06;;;;;;;26.52;18.92;;;6.00;99.90;;;;;;4937436;28;20134;-78
2021/03/11 03:53:39;;;;;;;26.33;19.88;;;6.00;99.90;;;;;;4937558;28;20078;-76
2021/03/11 03:56:20;;;;;;;22.27;18.48;;;6.00;99.90;;;;;;4941153;28;20089;-76
2021/03/11 03:58:47;;;;;;;20.27;14.70;;;6.00;99.90;;;;;;4935971;28;20114;-75
2021/03/11 04:01:14;;;;;;;30.27;19.95;;;6.00;99.90;;;;;;4938584;28;20039;-75
2021/03/11 04:03:46;;;;;;;26.70;20.65;;;6.00;99.90;;;;;;4939471;28;20031;-76
2021/03/11 04:06:13;;;;;;;27.67;19.75;;;6.00;99.90;;;;;;4940154;28;20070;-76
2021/03/11 04:08:43;;;;;;;25.25;17.63;;;6.00;99.90;;;;;;4942372;28;20032;-76
2021/03/11 04:11:10;;;;;;;26.20;18.10;;;6.00;99.90;;;;;;4943095;28;20038;-78
2021/03/11 04:13:37;;;;;;;30.02;19.80;;;6.00;99.90;;;;;;4961095;28;20031;-75
2021/03/11 04:16:03;;;;;;;30.08;20.40;;;6.00;99.90;;;;;;4951570;28;20027;-76
2021/03/11 04:18:30;;;;;;;25.10;17.50;;;6.00;99.90;;;;;;4940442;28;20028;-76
2021/03/11 04:20:57;;;;;;;25.33;18.15;;;6.00;99.90;;;;;;4944296;28;20031;-76
2021/03/11 04:23:23;;;;;;;25.92;18.90;;;6.00;99.90;;;;;;4941031;28;20115;-76
2021/03/11 04:25:50;;;;;;;25.92;17.92;;;5.90;99.90;;;;;;4944114;28;20046;-76
2021/03/11 04:28:16;;;;;;;22.38;16.73;;;6.00;99.90;;;;;;4940935;28;20035;-76
2021/03/11 04:30:43;;;;;;;26.73;17.48;;;6.00;99.90;;;;;;4941103;28;20532;-75
2021/03/11 04:33:09;;;;;;;27.45;17.75;;;6.00;99.90;;;;;;4941638;28;20035;-75
2021/03/11 04:35:35;;;;;;;34.92;18.27;;;6.00;99.90;;;;;;4936881;28;20054;-76
2021/03/11 04:38:04;;;;;;;27.60;17.15;;;5.90;99.90;;;;;;4940549;28;21287;-75
2021/03/11 04:41:20;;;;;;;24.17;18.20;;;5.90;99.90;;;;;;4957228;28;20019;-76
2021/03/11 04:43:46;;;;;;;32.75;19.25;;;6.00;99.90;;;;;;4936993;28;20039;-76
2021/03/11 04:46:13;;;;;;;32.53;19.60;;;6.10;99.90;;;;;;4937337;28;20035;-76
2021/03/11 04:48:42;;;;;;;26.17;19.45;;;6.10;99.90;;;;;;4937410;28;20027;-75
2021/03/11 04:51:08;;;;;;;26.23;19.33;;;6.10;99.90;;;;;;4938248;28;20054;-74
2021/03/11 04:53:34;;;;;;;27.10;18.88;;;6.20;99.90;;;;;;4943054;28;20023;-76
2021/03/11 04:56:04;;;;;;;26.25;18.77;;;6.20;99.90;;;;;;4938934;28;20106;-76
2021/03/11 04:58:30;;;;;;;27.52;19.85;;;6.20;99.90;;;;;;4950240;28;20028;-76
2021/03/11 05:00:59;;;;;;;26.70;19.20;;;6.30;99.90;;;;;;4958669;28;20047;-76
2021/03/11 05:03:25;;;;;;;29.85;19.33;;;6.30;99.90;;;;;;4967538;28;20110;-77
2021/03/11 05:05:51;;;;;;;27.35;19.35;;;6.40;99.90;;;;;;4974111;28;20075;-75
2021/03/11 05:08:20;;;;;;;26.55;18.95;;;6.40;99.90;;;;;;4951818;28;20031;-77
2021/03/11 05:10:45;;;;;;;21.92;17.83;;;6.40;99.90;;;;;;4953365;28;20035;-76
2021/03/11 05:13:15;;;;;;;25.35;20.08;;;6.40;99.90;;;;;;4943541;28;20042;-76
2021/03/11 05:15:41;;;;;;;25.13;19.45;;;6.40;99.90;;;;;;4939463;28;20517;-75
2021/03/11 05:18:07;;;;;;;29.00;20.58;;;6.40;99.90;;;;;;4947681;28;20106;-76
2021/03/11 05:20:33;;;;;;;28.67;18.73;;;6.60;99.90;;;;;;4944943;28;20485;-76
2021/03/11 05:22:59;;;;;;;27.33;18.58;;;6.60;99.90;;;;;;4945779;28;20043;-76
2021/03/11 05:25:25;;;;;;;23.45;19.15;;;6.60;99.90;;;;;;4939966;28;20034;-75
2021/03/11 05:27:53;;;;;;;28.40;18.40;;;6.60;99.90;;;;;;4940966;28;20039;-75
2021/03/11 05:30:20;;;;;;;28.42;20.70;;;6.60;99.90;;;;;;4942542;28;20094;-76
2021/03/11 05:32:48;;;;;;;30.20;20.02;;;6.60;99.90;;;;;;4959726;28;20485;-76
2021/03/11 05:35:14;;;;;;;27.83;20.05;;;6.60;99.90;;;;;;4967850;28;20189;-77
2021/03/11 05:37:40;;;;;;;28.58;20.02;;;6.60;99.90;;;;;;4943055;28;20703;-77
2021/03/11 05:40:09;;;;;;;27.95;20.48;;;6.70;99.90;;;;;;4944522;28;20031;-77
2021/03/11 05:42:47;;;;;;;26.88;18.70;;;6.70;99.90;;;;;;4942135;28;20038;-75
2021/03/11 05:45:15;;;;;;;24.77;20.55;;;6.70;99.90;;;;;;4949548;28;20027;-78
2021/03/11 05:47:43;;;;;;;31.05;19.58;;;6.80;99.90;;;;;;4946988;28;20059;-75
2021/03/11 05:50:10;;;;;;;26.65;20.17;;;6.80;99.90;;;;;;4947274;28;20027;-76
2021/03/11 05:52:40;;;;;;;29.17;20.00;;;6.70;99.90;;;;;;4944695;28;20032;-76
2021/03/11 05:55:08;;;;;;;25.95;18.40;;;6.80;99.90;;;;;;4944373;28;20051;-74
2021/03/11 05:57:37;;;;;;;29.60;20.88;;;6.70;99.90;;;;;;4939996;28;20114;-75
2021/03/11 06:00:06;;;;;;;25.33;19.60;;;6.80;99.90;;;;;;4943727;28;20052;-75
2021/03/11 06:02:33;;;;;;;24.77;17.85;;;6.70;99.90;;;;;;4938158;28;20474;-76
2021/03/11 06:04:59;;;;;;;26.77;19.60;;;6.70;99.90;;;;;;4941168;28;20031;-76
2021/03/11 06:10:57;;;;;;;29.10;18.70;;;6.90;99.90;;;;;;4883179;28;20119;-76
2021/03/11 06:13:24;;;;;;;31.15;18.58;;;6.90;99.90;;;;;;4970840;28;20027;-76
2021/03/11 06:16:14;;;;;;;31.20;19.88;;;6.90;99.90;;;;;;4952413;28;20023;-76
2021/03/11 06:18:41;;;;;;;28.88;19.98;;;6.90;99.90;;;;;;4963599;28;20383;-76
2021/03/11 06:21:07;;;;;;;33.33;20.50;;;7.00;99.90;;;;;;4967146;28;20022;-76
2021/03/11 06:23:34;;;;;;;25.23;20.50;;;7.10;99.90;;;;;;4958732;28;20114;-75
2021/03/11 06:26:01;;;;;;;30.02;18.77;;;7.20;99.90;;;;;;4953415;28;20022;-76
2021/03/11 06:28:45;;;;;;;36.38;19.90;;;7.10;99.90;;;;;;4950025;28;21272;-77
2021/03/11 06:31:23;;;;;;;31.25;20.20;;;7.20;99.90;;;;;;4941875;28;20035;-75
2021/03/11 06:33:50;;;;;;;38.33;20.65;;;7.20;99.90;;;;;;4946675;28;20031;-76
2021/03/11 06:36:20;;;;;;;31.23;20.73;;;7.20;99.90;;;;;;4945756;28;20035;-78
2021/03/11 06:38:49;;;;;;;30.25;18.85;;;7.30;99.90;;;;;;4942472;28;20390;-77
2021/03/11 06:41:15;;;;;;;35.70;20.40;;;7.60;99.90;;;;;;4936748;28;20055;-75
2021/03/11 06:44:08;;;;;;;32.30;19.40;;;7.60;99.90;;;;;;4942602;28;21739;-77
2021/03/11 06:46:33;;;;;;;33.40;20.10;;;7.80;99.90;;;;;;4952472;28;20032;-76
2021/03/11 06:49:09;;;;;;;32.05;20.38;;;8.00;99.90;;;;;;4953356;28;20058;-76
2021/03/11 06:51:36;;;;;;;33.20;21.17;;;8.10;99.90;;;;;;4956982;28;20042;-75
2021/03/11 06:54:03;;;;;;;34.03;23.25;;;8.10;99.90;;;;;;4950687;28;20121;-76
2021/03/11 06:56:29;;;;;;;32.47;20.70;;;8.10;99.90;;;;;;4945403;28;20045;-77
2021/03/11 06:59:01;;;;;;;31.02;19.67;;;8.20;99.90;;;;;;4940646;28;20027;-76
2021/03/11 07:01:32;;;;;;;34.92;20.60;;;8.30;99.90;;;;;;4944009;28;20051;-76
2021/03/11 07:04:02;;;;;;;32.28;21.52;;;8.50;99.90;;;;;;4939119;28;20049;-76
2021/03/11 07:06:30;;;;;;;36.67;20.23;;;8.60;99.90;;;;;;4940718;28;20028;-75
2021/03/11 07:08:57;;;;;;;34.20;20.50;;;8.70;99.90;;;;;;4937336;28;20055;-76
2021/03/11 07:11:24;;;;;;;31.58;19.42;;;8.80;99.90;;;;;;4937568;28;20046;-76
2021/03/11 07:13:51;;;;;;;34.03;19.23;;;8.80;99.90;;;;;;4943484;28;20118;-76
2021/03/11 07:16:23;;;;;;;29.67;19.70;;;9.00;99.90;;;;;;4940083;28;20036;-76
2021/03/11 07:19:10;;;;;;;38.00;21.23;;;9.10;99.90;;;;;;4943463;28;20030;-76
2021/03/11 07:21:44;;;;;;;34.00;20.52;;;9.30;99.90;;;;;;4944625;28;20286;-77
2021/03/11 07:24:11;;;;;;;28.73;19.15;;;9.40;99.90;;;;;;4950048;28;20027;-75
2021/03/11 07:26:37;;;;;;;41.63;20.55;;;9.60;99.90;;;;;;4941798;28;20197;-76
2021/03/11 07:29:19;;;;;;;28.00;18.90;;;9.80;99.90;;;;;;4948285;28;20437;-76
2021/03/11 07:31:54;;;;;;;27.25;20.70;;;9.90;99.90;;;;;;4967264;28;20054;-77
2021/03/11 07:34:24;;;;;;;31.67;20.50;;;10.00;99.90;;;;;;4946270;28;20027;-76
2021/03/11 07:36:51;;;;;;;29.67;18.92;;;10.10;99.90;;;;;;4964843;28;20034;-76
2021/03/11 07:39:23;;;;;;;26.33;17.42;;;10.20;99.90;;;;;;4954494;28;20054;-74
2021/03/11 07:41:51;;;;;;;35.33;18.58;;;10.40;99.90;;;;;;4958775;28;20049;-75
2021/03/11 07:44:17;;;;;;;25.00;18.40;;;10.50;99.90;;;;;;4963980;28;20031;-75
2021/03/11 07:46:43;;;;;;;25.38;17.63;;;10.80;99.90;;;;;;4939774;28;20078;-75
2021/03/11 07:49:10;;;;;;;31.45;21.48;;;10.90;99.90;;;;;;4940150;28;20054;-76
2021/03/11 07:51:38;;;;;;;25.65;18.73;;;11.00;99.90;;;;;;4939775;28;20035;-76
2021/03/11 07:54:08;;;;;;;31.60;20.30;;;10.90;99.90;;;;;;4941493;28;20063;-75
2021/03/11 07:56:34;;;;;;;25.17;19.02;;;11.00;99.90;;;;;;4944697;28;20055;-75
2021/03/11 07:59:08;;;;;;;32.70;19.70;;;11.20;99.90;;;;;;4946645;28;20035;-74
2021/03/11 08:01:44;;;;;;;33.50;21.27;;;11.50;99.90;;;;;;4940638;28;20023;-76
2021/03/11 08:04:12;;;;;;;26.25;19.25;;;11.60;99.90;;;;;;4939248;28;20062;-76
2021/03/11 08:06:38;;;;;;;33.28;21.67;;;11.60;99.90;;;;;;4949113;28;20036;-75
2021/03/11 08:09:04;;;;;;;37.92;24.90;;;11.60;99.90;;;;;;4941280;28;20033;-76
2021/03/11 08:11:38;;;;;;;27.48;17.30;;;11.50;99.90;;;;;;4941318;28;20035;-78
2021/03/11 08:14:18;;;;;;;33.03;23.30;;;11.50;99.90;;;;;;4940654;28;20040;-76
2021/03/11 08:16:44;;;;;;;29.75;20.83;;;11.50;99.90;;;;;;4944537;28;20032;-77
2021/03/11 08:19:10;;;;;;;38.35;24.88;;;11.40;99.90;;;;;;4940449;28;21873;-76
2021/03/11 08:21:36;;;;;;;30.52;20.33;;;11.40;99.90;;;;;;4953564;28;20401;-77
2021/03/11 08:24:48;;;;;;;28.10;19.75;;;11.40;99.90;;;;;;4944670;28;20031;-76
2021/03/11 08:27:34;;;;;;;28.90;20.90;;;11.50;99.90;;;;;;4948579;29;20035;-76
2021/03/11 08:30:00;;;;;;;26.20;18.08;;;11.80;99.90;;;;;;4953138;29;20047;-76
2021/03/11 08:32:49;;;;;;;24.23;18.30;;;12.00;99.90;;;;;;4936372;29;20027;-74
2021/03/11 08:35:27;;;;;;;24.63;18.70;;;12.30;99.90;;;;;;4938735;29;20032;-76
2021/03/11 08:37:57;;;;;;;25.83;19.13;;;12.60;99.90;;;;;;4957199;28;20392;-77
2021/03/11 08:40:36;;;;;;;28.08;18.95;;;12.80;99.90;;;;;;4947858;28;20019;-77
2021/03/11 08:43:03;;;;;;;29.25;19.15;;;13.10;99.90;;;;;;4961097;29;20095;-77
2021/03/11 08:45:35;;;;;;;27.67;19.42;;;13.10;99.90;;;;;;4962766;28;20031;-76
2021/03/11 08:48:15;;;;;;;24.98;18.88;;;13.20;99.90;;;;;;4948550;28;20030;-75
2021/03/11 08:50:45;;;;;;;21.52;18.20;;;13.40;99.90;;;;;;4946671;29;20063;-77
2021/03/11 08:53:12;;;;;;;31.85;18.80;;;13.60;99.90;;;;;;4948740;29;20027;-75
2021/03/11 08:55:41;;;;;;;21.58;18.02;;;13.90;99.90;;;;;;4944187;29;20042;-76
2021/03/11 08:58:28;;;;;;;24.70;17.23;;;14.10;99.90;;;;;;4944311;29;20035;-76
2021/03/11 09:01:00;;;;;;;29.40;20.13;;;14.00;99.90;;;;;;4957560;29;20450;-76
2021/03/11 09:03:43;;;;;;;35.92;17.40;;;14.20;99.90;;;;;;4962724;28;20039;-77
2021/03/11 09:06:11;;;;;;;22.13;17.38;;;14.20;99.90;;;;;;4946116;29;20028;-77
2021/03/11 09:08:46;;;;;;;23.52;16.40;;;14.20;99.90;;;;;;4944064;29;20032;-76
2021/03/11 09:11:15;;;;;;;20.90;15.85;;;14.20;99.90;;;;;;4957382;29;20023;-76
2021/03/11 09:13:42;;;;;;;21.65;15.73;;;14.30;99.90;;;;;;4962203;28;20039;-77
2021/03/11 09:16:32;;;;;;;22.80;17.63;;;14.30;99.90;;;;;;4954190;28;20020;-78
2021/03/11 09:18:58;;;;;;;27.48;17.45;;;14.20;99.90;;;;;;4962189;28;20034;-77
2021/03/11 09:21:37;;;;;;;29.85;18.77;;;14.10;99.90;;;;;;4960927;28;20027;-79
2021/03/11 09:24:04;;;;;;;29.85;18.13;;;13.90;99.90;;;;;;4964124;28;20114;-77
2021/03/11 09:26:33;;;;;;;24.38;17.55;;;13.80;99.90;;;;;;4964721;28;20043;-76
2021/03/11 09:29:15;;;;;;;30.90;19.77;;;13.90;99.90;;;;;;4947645;29;20168;-77
2021/03/11 09:31:53;;;;;;;25.10;19.30;;;14.00;99.90;;;;;;4948155;29;20494;-76
2021/03/11 09:34:19;;;;;;;28.88;17.67;;;14.00;99.90;;;;;;4961909;29;20107;-77
2021/03/11 09:36:47;;;;;;;29.90;19.02;;;14.10;99.90;;;;;;4968719;28;20050;-77
2021/03/11 09:39:14;;;;;;;28.52;18.45;;;14.10;99.90;;;;;;4974043;28;20034;-77
2021/03/11 09:41:46;;;;;;;24.80;17.15;;;14.10;99.90;;;;;;4973458;28;20022;-76
2021/03/11 09:44:20;;;;;;;24.10;19.98;;;14.10;99.90;;;;;;4958971;29;20103;-76
2021/03/11 09:46:49;;;;;;;24.17;16.73;;;14.00;99.90;;;;;;4973851;29;20492;-75
2021/03/11 09:49:24;;;;;;;24.50;18.10;;;14.10;99.90;;;;;;4971670;28;20035;-77
2021/03/11 09:51:50;;;;;;;27.23;17.42;;;14.00;99.90;;;;;;4958960;28;20056;-78
2021/03/11 09:54:22;;;;;;;23.55;18.08;;;14.00;99.90;;;;;;4956820;28;20031;-77
2021/03/11 09:56:48;;;;;;;20.48;17.30;;;14.00;99.90;;;;;;4958601;29;20032;-78
2021/03/11 09:59:18;;;;;;;23.15;18.10;;;14.10;99.90;;;;;;4945100;29;20470;-77
2021/03/11 10:01:53;;;;;;;22.73;18.15;;;14.00;99.90;;;;;;4957738;29;20034;-75
2021/03/11 10:04:30;;;;;;;26.05;19.13;;;14.00;99.90;;;;;;4964680;28;20039;-75
2021/03/11 10:06:59;;;;;;;26.73;18.25;;;13.90;99.90;;;;;;4975609;29;20046;-77
2021/03/11 10:09:36;;;;;;;24.58;17.92;;;13.90;99.90;;;;;;4969310;29;20023;-75
2021/03/11 10:12:10;;;;;;;20.30;18.02;;;13.90;99.90;;;;;;4974377;28;20091;-77
2021/03/11 10:14:42;;;;;;;22.55;17.15;;;13.70;99.90;;;;;;4964411;28;20043;-77
2021/03/11 10:17:26;;;;;;;25.27;17.70;;;13.50;99.90;;;;;;4960244;29;20063;-75
2021/03/11 10:19:52;;;;;;;22.63;17.88;;;13.50;99.90;;;;;;4959143;29;20035;-77
2021/03/11 10:22:22;;;;;;;24.77;17.67;;;13.40;99.90;;;;;;4944641;29;20131;-77
2021/03/11 10:24:58;;;;;;;26.33;18.90;;;13.30;99.90;;;;;;4946879;29;20122;-77
2021/03/11 10:27:27;;;;;;;22.80;17.90;;;13.30;99.90;;;;;;4963180;29;20033;-77
2021/03/11 10:30:05;;;;;;;19.35;17.05;;;13.40;99.90;;;;;;4962456;28;20633;-77
2021/03/11 10:32:37;;;;;;;23.92;19.23;;;13.60;99.90;;;;;;4961622;28;20062;-77
2021/03/11 10:35:08;;;;;;;23.60;17.45;;;13.60;99.90;;;;;;4959130;29;20035;-76
2021/03/11 10:37:39;;;;;;;28.67;20.67;;;13.50;99.90;;;;;;4961160;28;20023;-76
2021/03/11 10:40:09;;;;;;;25.15;18.25;;;13.70;99.90;;;;;;4960491;28;20110;-77
2021/03/11 10:42:46;;;;;;;25.05;17.90;;;13.60;99.90;;;;;;4961550;28;20085;-76
2021/03/11 10:45:18;;;;;;;24.80;17.42;;;13.60;99.90;;;;;;4955688;28;20027;-77
2021/03/11 10:48:06;;;;;;;21.05;17.58;;;13.40;99.90;;;;;;4944518;28;20035;-76
2021/03/11 10:50:41;;;;;;;24.92;18.33;;;13.40;99.90;;;;;;4939153;29;20024;-77
2021/03/11 10:53:08;;;;;;;22.17;18.27;;;13.50;99.90;;;;;;4939406;29;20035;-76
2021/03/11 10:55:55;;;;;;;20.80;17.55;;;13.50;99.90;;;;;;4938439;29;20181;-77
2021/03/11 10:58:27;;;;;;;23.35;17.67;;;13.20;99.90;;;;;;4943479;29;20032;-76
2021/03/11 11:01:22;;;;;;;21.23;17.63;;;13.20;99.90;;;;;;4939778;29;20059;-77
2021/03/11 11:04:03;;;;;;;26.05;18.33;;;13.20;99.90;;;;;;4939396;29;20028;-76
2021/03/11 11:06:35;;;;;;;28.10;19.13;;;13.40;99.90;;;;;;4956048;28;20031;-77
2021/03/11 11:09:01;;;;;;;23.58;18.08;;;13.10;99.90;;;;;;4966868;28;20042;-76
2021/03/11 11:11:27;;;;;;;24.88;17.80;;;12.90;99.90;;;;;;4944867;29;20032;-77
2021/03/11 11:13:56;;;;;;;22.33;18.33;;;12.80;99.90;;;;;;4948261;28;20502;-77
2021/03/11 11:16:23;;;;;;;24.75;18.77;;;12.90;99.90;;;;;;4968516;28;20061;-76
2021/03/11 11:18:49;;;;;;;22.77;18.40;;;13.00;99.90;;;;;;4976433;28;20029;-75
2021/03/11 11:21:35;;;;;;;23.00;17.35;;;13.10;99.90;;;;;;4946280;28;20059;-77
2021/03/11 11:24:13;;;;;;;21.58;18.15;;;13.20;99.90;;;;;;4953210;28;20024;-73
2021/03/11 11:26:39;;;;;;;22.17;18.08;;;13.30;99.90;;;;;;4967556;28;20035;-74
2021/03/11 11:29:05;;;;;;;25.92;19.45;;;13.30;99.90;;;;;;4959309;28;20078;-73
2021/03/11 11:31:36;;;;;;;22.00;18.92;;;13.30;99.90;;;;;;4945621;28;20156;-73
2021/03/11 11:34:02;;;;;;;25.17;18.73;;;13.10;99.90;;;;;;4938201;29;20020;-74
2021/03/11 11:36:27;;;;;;;29.75;17.10;;;13.10;99.90;;;;;;4941707;28;20508;-73
2021/03/11 11:38:53;;;;;;;24.02;17.48;;;13.10;99.90;;;;;;4952363;28;20046;-73
2021/03/11 11:41:19;;;;;;;28.30;19.38;;;12.80;99.90;;;;;;4937576;28;20528;-74
2021/03/11 11:43:45;;;;;;;20.33;15.82;;;12.70;99.90;;;;;;4939593;29;20050;-72
2021/03/11 11:46:12;;;;;;;19.58;16.52;;;12.70;99.90;;;;;;4958710;28;20030;-73
2021/03/11 11:48:38;;;;;;;22.15;17.77;;;13.10;99.90;;;;;;4970630;28;20026;-74
2021/03/11 11:51:04;;;;;;;21.50;17.92;;;13.20;99.90;;;;;;4974224;28;20026;-73
2021/03/11 11:53:30;;;;;;;19.42;17.00;;;13.20;99.90;;;;;;4960852;28;20517;-72
2021/03/11 11:55:56;;;;;;;24.88;18.52;;;12.90;99.90;;;;;;4959303;28;20035;-74
2021/03/11 11:58:23;;;;;;;24.55;17.35;;;12.70;99.90;;;;;;4948767;29;20034;-73
2021/03/11 12:00:49;;;;;;;60.95;18.15;;;12.60;99.90;;;;;;4961286;28;20051;-74
2021/03/11 12:03:15;;;;;;;24.23;16.48;;;12.80;99.90;;;;;;4937001;29;20050;-74
2021/03/11 12:05:41;;;;;;;24.55;16.30;;;13.10;99.90;;;;;;4950167;29;20035;-74
2021/03/11 12:08:08;;;;;;;22.80;16.45;;;13.30;99.90;;;;;;4936243;29;20059;-75
2021/03/11 12:10:34;;;;;;;25.60;17.00;;;13.40;99.90;;;;;;4935902;29;20118;-73
2021/03/11 12:13:01;;;;;;;17.90;16.00;;;13.60;99.90;;;;;;4944671;29;20036;-75
2021/03/11 12:15:28;;;;;;;19.77;16.67;;;13.80;99.90;;;;;;4934750;29;20015;-77
2021/03/11 12:17:54;;;;;;;23.60;16.50;;;13.90;99.90;;;;;;4934866;29;20027;-76
2021/03/11 12:20:20;;;;;;;22.88;17.25;;;13.70;99.90;;;;;;4934811;29;20028;-75
2021/03/11 12:22:48;;;;;;;18.23;16.27;;;13.70;99.90;;;;;;4943346;29;20027;-79
2021/03/11 12:25:15;;;;;;;19.00;16.67;;;13.50;99.90;;;;;;4946716;28;20199;-78
2021/03/11 12:27:40;;;;;;;23.27;16.63;;;13.60;99.90;;;;;;4951658;28;20020;-75
2021/03/11 12:30:07;;;;;;;18.35;16.38;;;13.30;99.90;;;;;;4959402;28;20030;-75
2021/03/11 12:32:36;;;;;;;20.52;16.42;;;13.40;99.90;;;;;;4950550;28;20182;-73
2021/03/11 12:35:22;;;;;;;18.63;15.77;;;13.40;99.90;;;;;;4935895;29;20032;-75
2021/03/11 12:37:49;;;;;;;17.48;15.52;;;13.40;99.90;;;;;;4934322;29;20122;-75
2021/03/11 12:40:15;;;;;;;19.48;15.77;;;13.30;99.90;;;;;;4949890;28;20026;-74
2021/03/11 12:42:46;;;;;;;18.42;14.60;;;13.20;99.90;;;;;;4963347;28;20062;-75
2021/03/11 12:45:37;;;;;;;19.03;15.27;;;13.00;99.90;;;;;;4938078;28;20034;-75
2021/03/11 12:48:05;;;;;;;17.45;14.82;;;12.90;99.90;;;;;;4941609;28;20283;-75
2021/03/11 12:51:36;;;;;;;26.85;14.05;;;12.70;99.90;;;;;;4969530;28;20034;-74